Avilla, Missouri
Current Conditions -  °F | °C
As of 2:09 PM on Friday 19 Dec 2014 (Local Time) from KJLN Reporting Station
Moderate Fog Moderate Fog  
Wind Chill: 34°   Ceiling: 300
Heat Index: 38°   Visibility: 0.25mi
Dew Point: 38°   Wind: 5mph
Humidity: 100%   Direction: 50°NE
Pressure: 30.19"   Gusts: NA
Location:  37.2°N, 94.13°W
Report Text: KJLN 192009Z 05004KT 1/4SM FG VV003 03/03 A3019 RMK AO2 T00330033
Loading
Personal Weather Stations






























Interactive Weather Map New forecast layout! Learn more

10-Day Weather Forecast

Advertisements
Track Severe Weather on mobile